Argo — ER2646 — position and weather

sailwx.info

Track history (hours):
 
Tides and Currents Weather Stations Pressure Air Temp Water Temp Dewpoint Dewpoint Depression Visibility Wind Speed Wind Dir Waves Ship Positions

Argo

Last reported at 2018-Jan-23 11:41 UTC. Time now 2018-Jan-24 04:07 UTC.
Position N 45°29' E 036°44'.

Length 103 m; draft 2.9 m.

Type: Cargo ship. MMSI: 214182621.

Date/timePositionNaut miles runAvg speedWind from/ knotsBaromVisibWave heightAir tempDewpointWater temp
2018-Jan-23 11:41N 45°29' E 036°44'1 6.9
2018-Jan-23 11:29N 45°28' E 036°43'3 6.7
2018-Jan-23 11:00N 45°25' E 036°41'3 6.9
2018-Jan-23 10:30N 45°22' E 036°40'3 6.4
2018-Jan-23 10:00N 45°20' E 036°36'4 7.2
2018-Jan-23 09:30N 45°19' E 036°32'3 6.3
2018-Jan-23 09:00N 45°16' E 036°29'3 5.5
2018-Jan-23 08:30N 45°14' E 036°29'2 0.1
2018-Jan-22 07:24N 45°13' E 036°32'  
2018-Jan-19 21:20N 40°57' E 028°59'5 0.3
2018-Jan-19 07:12N 40°54' E 028°55'2 6.4
2018-Jan-19 06:54N 40°52' E 028°53'  
Track history (hours):
 
Tides and Currents Weather Stations Pressure Air Temp Water Temp Dewpoint Dewpoint Depression Visibility Wind Speed Wind Dir Waves Ship Positions

Argo

Last reported at 2018-Jan-23 11:41 UTC. Time now 2018-Jan-24 04:07 UTC.
Position N 45°29' E 036°44'.

Length 103 m; draft 2.9 m.

Type: Cargo ship. MMSI: 214182621.

Date/timePositionNaut miles runAvg speedWind from/ knotsBaromVisibWave heightAir tempDewpointWater temp
2018-Jan-23 11:41N 45°29' E 036°44'1 6.9
2018-Jan-23 11:29N 45°28' E 036°43'3 6.7
2018-Jan-23 11:00N 45°25' E 036°41'3 6.9
2018-Jan-23 10:30N 45°22' E 036°40'3 6.4
2018-Jan-23 10:00N 45°20' E 036°36'4 7.2
2018-Jan-23 09:30N 45°19' E 036°32'3 6.3
2018-Jan-23 09:00N 45°16' E 036°29'3 5.5
2018-Jan-23 08:30N 45°14' E 036°29'2 0.1
2018-Jan-22 07:24N 45°13' E 036°32'  
2018-Jan-19 21:20N 40°57' E 028°59'5 0.3
2018-Jan-19 07:12N 40°54' E 028°55'2 6.4
2018-Jan-19 06:54N 40°52' E 028°53'  

Dump ship's entire track history